createdAt,value
2018-12-17T00:00:44.166Z,3.7
2018-12-17T00:01:46.443Z,3.6
2018-12-17T00:02:48.461Z,3.6
2018-12-17T00:03:49.857Z,3.6
2018-12-17T00:04:51.996Z,3.6
2018-12-17T00:05:53.804Z,3.6
2018-12-17T00:06:55.231Z,3.6
2018-12-17T00:07:56.653Z,3.6
2018-12-17T00:08:58.052Z,3.5
2018-12-17T00:09:59.445Z,3.7
2018-12-17T00:11:00.863Z,3.7
2018-12-17T00:12:02.268Z,3.7
2018-12-17T00:13:03.658Z,3.6
2018-12-17T00:14:05.068Z,3.7
2018-12-17T00:15:06.426Z,3.7
2018-12-17T00:16:07.813Z,3.6
2018-12-17T00:17:09.212Z,3.6
2018-12-17T00:18:10.588Z,3.7
2018-12-17T00:19:11.997Z,3.7
2018-12-17T00:20:15.183Z,3.7
2018-12-17T00:21:17.448Z,3.7
2018-12-17T00:22:18.838Z,3.7
2018-12-17T00:23:21.167Z,3.7
2018-12-17T00:24:22.548Z,3.7
2018-12-17T00:25:23.911Z,3.7
2018-12-17T00:26:26.741Z,3.7
2018-12-17T00:27:28.127Z,3.8
2018-12-17T00:28:29.572Z,3.8
2018-12-17T00:29:30.974Z,3.7
2018-12-17T00:30:32.881Z,3.7
2018-12-17T00:31:35.137Z,3.7
2018-12-17T00:32:36.593Z,3.8
2018-12-17T00:33:38.044Z,3.8
2018-12-17T00:34:39.421Z,3.8
2018-12-17T00:35:40.819Z,3.8
2018-12-17T00:36:43.027Z,3.8
2018-12-17T00:37:44.517Z,3.8
2018-12-17T00:38:45.924Z,3.8
2018-12-17T00:39:49.199Z,3.8
2018-12-17T00:40:50.618Z,3.8
2018-12-17T00:41:51.998Z,3.8
2018-12-17T00:42:54.169Z,3.7
2018-12-17T00:43:55.597Z,3.8
2018-12-17T00:44:56.992Z,3.8
2018-12-17T00:45:58.367Z,3.8
2018-12-17T00:46:59.771Z,3.7
2018-12-17T00:48:02.149Z,3.7
2018-12-17T00:49:05.297Z,3.7
2018-12-17T00:50:06.659Z,3.7
2018-12-17T00:51:08.044Z,3.7
2018-12-17T00:52:09.432Z,3.7
2018-12-17T00:53:10.832Z,3.7
2018-12-17T00:54:12.208Z,3.7
2018-12-17T00:55:13.581Z,3.8
2018-12-17T00:56:14.993Z,3.7
2018-12-17T00:57:16.384Z,3.8
2018-12-17T00:58:17.864Z,3.8
2018-12-17T00:59:21.970Z,3.6
2018-12-17T01:00:23.368Z,3.6
2018-12-17T01:01:24.834Z,3.5
2018-12-17T01:02:26.263Z,3.5
2018-12-17T01:03:28.229Z,3.6
2018-12-17T01:04:30.372Z,3.5
2018-12-17T01:05:31.765Z,3.5
2018-12-17T01:06:33.149Z,3.5
2018-12-17T01:07:35.478Z,3.5
2018-12-17T01:08:36.978Z,3.4
2018-12-17T01:09:39.138Z,3.4
2018-12-17T01:10:40.560Z,3.5
2018-12-17T01:11:42.053Z,3.5
2018-12-17T01:12:43.428Z,3.4
2018-12-17T01:13:45.783Z,3.5
2018-12-17T01:14:47.277Z,3.4
2018-12-17T01:15:49.624Z,3.4
2018-12-17T01:16:54.383Z,3.5
2018-12-17T01:17:55.858Z,3.4
2018-12-17T01:18:57.368Z,3.5
2018-12-17T01:19:58.739Z,3.5
2018-12-17T01:21:00.190Z,3.5
2018-12-17T01:22:01.589Z,3.5
2018-12-17T01:23:02.978Z,3.5
2018-12-17T01:24:04.374Z,3.5
2018-12-17T01:25:06.469Z,3.5
2018-12-17T01:26:08.721Z,3.6
2018-12-17T01:27:10.093Z,3.5
2018-12-17T01:28:12.000Z,3.5
2018-12-17T01:29:13.402Z,3.5
2018-12-17T01:30:14.904Z,3.6
2018-12-17T01:31:16.396Z,3.5
2018-12-17T01:32:17.805Z,3.5
2018-12-17T01:33:19.220Z,3.5
2018-12-17T01:34:22.149Z,3.5
2018-12-17T01:35:25.488Z,3.5
2018-12-17T01:36:26.981Z,3.6
2018-12-17T01:37:28.554Z,3.5
2018-12-17T01:38:30.028Z,3.6
2018-12-17T01:39:31.690Z,3.5
2018-12-17T01:40:33.297Z,3.5
2018-12-17T01:41:34.959Z,3.5
2018-12-17T01:42:37.845Z,3.5
2018-12-17T01:43:39.220Z,3.6
2018-12-17T01:44:40.644Z,3.5
2018-12-17T01:45:42.004Z,3.5
2018-12-17T01:46:43.394Z,3.5
2018-12-17T01:47:44.768Z,3.5
2018-12-17T01:48:46.178Z,3.5
2018-12-17T01:49:47.624Z,3.6
2018-12-17T01:50:49.052Z,3.5
2018-12-17T01:51:50.519Z,3.5
2018-12-17T01:52:52.664Z,3.5
2018-12-17T01:53:54.160Z,3.5
2018-12-17T01:54:55.688Z,3.5
2018-12-17T01:56:01.149Z,3.5
2018-12-17T01:57:02.562Z,3.5
2018-12-17T01:58:05.515Z,3.5
2018-12-17T01:59:06.927Z,3.5
2018-12-17T02:00:08.329Z,3.5
2018-12-17T02:01:09.821Z,3.6
2018-12-17T02:02:12.158Z,3.4
2018-12-17T02:03:13.542Z,3.5
2018-12-17T02:04:14.933Z,3.5
2018-12-17T02:05:16.397Z,3.5
2018-12-17T02:06:17.763Z,3.5
2018-12-17T02:07:19.249Z,3.5
2018-12-17T02:08:20.703Z,3.5
2018-12-17T02:09:23.083Z,3.5
2018-12-17T02:10:24.718Z,3.4
2018-12-17T02:11:27.038Z,3.5
2018-12-17T02:12:30.815Z,3.4
2018-12-17T02:13:34.465Z,3.4
2018-12-17T02:14:35.909Z,3.4
2018-12-17T02:15:38.193Z,3.4
2018-12-17T02:16:40.623Z,3.4
2018-12-17T02:17:42.044Z,3.4
2018-12-17T02:18:47.894Z,3.4
2018-12-17T02:19:49.239Z,3.5
2018-12-17T02:20:54.200Z,3.5
2018-12-17T02:21:55.630Z,3.5
2018-12-17T02:22:57.813Z,3.5
2018-12-17T02:23:59.783Z,3.4
2018-12-17T02:25:01.224Z,3.5
2018-12-17T02:26:02.603Z,3.4
2018-12-17T02:27:03.998Z,3.4
2018-12-17T02:28:06.267Z,3.4
2018-12-17T02:29:07.790Z,3.4
2018-12-17T02:30:09.361Z,3.4
2018-12-17T02:31:11.006Z,3.3
2018-12-17T02:32:12.480Z,3.4
2018-12-17T02:33:13.950Z,3.4
2018-12-17T02:34:15.457Z,3.4
2018-12-17T02:35:16.965Z,3.4
2018-12-17T02:36:18.480Z,3.4
2018-12-17T02:37:19.886Z,3.4
2018-12-17T02:38:21.325Z,3.4
2018-12-17T02:39:22.785Z,3.3
2018-12-17T02:40:24.794Z,3.3
2018-12-17T02:41:28.158Z,3.2
2018-12-17T02:42:29.600Z,3.3
2018-12-17T02:43:31.156Z,3.3
2018-12-17T02:44:33.254Z,3.3
2018-12-17T02:45:34.624Z,3.3
2018-12-17T02:46:36.065Z,3.3
2018-12-17T02:47:37.467Z,3.3
2018-12-17T02:48:39.600Z,3.3
2018-12-17T02:49:40.285Z,3.3
2018-12-17T02:50:43.258Z,3.3
2018-12-17T02:51:44.621Z,3.4
2018-12-17T02:52:46.059Z,3.4
2018-12-17T02:53:47.551Z,3.3
2018-12-17T02:54:48.980Z,3.4
2018-12-17T02:55:50.381Z,3.4
2018-12-17T02:56:54.335Z,3.4
2018-12-17T02:57:55.779Z,3.4
2018-12-17T02:58:58.744Z,3.4
2018-12-17T03:00:00.148Z,3.4
2018-12-17T03:01:01.544Z,3.4
2018-12-17T03:02:02.941Z,3.3
2018-12-17T03:03:04.458Z,3.4
2018-12-17T03:04:05.949Z,3.4
2018-12-17T03:05:08.299Z,3.5
2018-12-17T03:06:09.808Z,3.4
2018-12-17T03:07:12.100Z,3.4
2018-12-17T03:08:13.715Z,3.3
2018-12-17T03:09:20.189Z,3.4
2018-12-17T03:10:24.450Z,3.3
2018-12-17T03:11:25.881Z,3.4
2018-12-17T03:12:27.859Z,3.4
2018-12-17T03:13:30.099Z,3.4
2018-12-17T03:14:31.529Z,3.3
2018-12-17T03:15:32.990Z,3.3
2018-12-17T03:16:34.432Z,3.3
2018-12-17T03:17:35.919Z,3.3
2018-12-17T03:18:37.416Z,3.3
2018-12-17T03:19:38.780Z,3.4
2018-12-17T03:20:40.252Z,3.3
2018-12-17T03:21:41.750Z,3.3
2018-12-17T03:22:43.160Z,3.3
2018-12-17T03:23:44.599Z,3.4
2018-12-17T03:24:46.601Z,3.3
2018-12-17T03:25:48.028Z,3.4
2018-12-17T03:26:49.403Z,3.4
2018-12-17T03:27:50.915Z,3.4
2018-12-17T03:28:52.389Z,3.3
2018-12-17T03:29:55.273Z,3.4
2018-12-17T03:30:56.696Z,3.4
2018-12-17T03:31:58.245Z,3.4
2018-12-17T03:32:59.820Z,3.4
2018-12-17T03:34:01.279Z,3.4
2018-12-17T03:35:02.729Z,3.3
2018-12-17T03:36:04.229Z,3.4
2018-12-17T03:37:05.725Z,3.4
2018-12-17T03:38:07.131Z,3.4
2018-12-17T03:39:08.531Z,3.5
2018-12-17T03:40:13.432Z,3.5
2018-12-17T03:41:14.886Z,3.6
2018-12-17T03:42:16.279Z,3.6
2018-12-17T03:43:21.823Z,3.7
2018-12-17T03:44:26.481Z,3.6
2018-12-17T03:45:27.976Z,3.7
2018-12-17T03:46:29.476Z,3.7
2018-12-17T03:47:31.147Z,3.7
2018-12-17T03:48:32.676Z,3.7
2018-12-17T03:49:34.230Z,3.7
2018-12-17T03:50:38.212Z,3.7
2018-12-17T03:51:39.762Z,3.7
2018-12-17T03:52:42.180Z,3.7
2018-12-17T03:53:45.692Z,3.8
2018-12-17T03:54:47.271Z,3.8
2018-12-17T03:55:48.716Z,3.7
2018-12-17T03:56:50.271Z,3.8
2018-12-17T03:57:51.811Z,3.8
2018-12-17T03:58:59.171Z,3.8
2018-12-17T03:59:55.241Z,3.8
2018-12-17T04:00:56.658Z,3.7
2018-12-17T04:02:00.615Z,3.8
2018-12-17T04:03:01.051Z,3.7
2018-12-17T04:04:03.777Z,3.7
2018-12-17T04:05:05.175Z,3.7
2018-12-17T04:06:07.466Z,3.7
2018-12-17T04:07:09.505Z,3.7
2018-12-17T04:08:11.687Z,3.6
2018-12-17T04:09:13.037Z,3.6
2018-12-17T04:10:15.225Z,3.6
2018-12-17T04:11:16.901Z,3.6
2018-12-17T04:12:19.916Z,3.6
2018-12-17T04:13:22.010Z,3.5
2018-12-17T04:14:23.409Z,3.7
2018-12-17T04:15:25.209Z,3.7
2018-12-17T04:16:28.180Z,3.6
2018-12-17T04:17:32.190Z,3.5
2018-12-17T04:18:34.236Z,3.6
2018-12-17T04:19:35.628Z,3.6
2018-12-17T04:20:37.759Z,3.5
2018-12-17T04:21:43.616Z,3.6
2018-12-17T04:22:44.344Z,3.6
2018-12-17T04:23:45.861Z,3.6
2018-12-17T04:24:47.440Z,3.5
2018-12-17T04:25:49.382Z,3.6
2018-12-17T04:26:50.771Z,3.6
2018-12-17T04:27:52.247Z,3.5
2018-12-17T04:28:53.779Z,3.5
2018-12-17T04:29:56.321Z,3.6
2018-12-17T04:30:58.021Z,3.6
2018-12-17T04:32:04.106Z,3.6
2018-12-17T04:33:04.511Z,3.6
2018-12-17T04:34:06.613Z,3.7
2018-12-17T04:35:08.084Z,3.6
2018-12-17T04:36:09.593Z,3.7
2018-12-17T04:37:11.195Z,3.6
2018-12-17T04:38:13.543Z,3.7
2018-12-17T04:39:15.685Z,3.6
2018-12-17T04:40:18.081Z,3.7
2018-12-17T04:41:20.937Z,3.8
2018-12-17T04:42:23.016Z,3.9
2018-12-17T04:43:25.892Z,3.9
2018-12-17T04:44:27.354Z,3.9
2018-12-17T04:45:30.363Z,3.9
2018-12-17T04:46:31.786Z,3.9
2018-12-17T04:47:33.310Z,3.9
2018-12-17T04:48:35.722Z,3.7
2018-12-17T04:49:37.195Z,3.8
2018-12-17T04:50:38.685Z,3.8
2018-12-17T04:51:40.166Z,3.8
2018-12-17T04:52:41.567Z,3.8
2018-12-17T04:53:43.685Z,3.8
2018-12-17T04:54:46.476Z,3.8
2018-12-17T04:55:49.310Z,3.8
2018-12-17T04:56:50.754Z,3.8
2018-12-17T04:57:52.328Z,3.8
2018-12-17T04:58:54.728Z,3.8
2018-12-17T04:59:57.146Z,3.8
2018-12-17T05:00:58.632Z,3.7
2018-12-17T05:02:00.086Z,3.8
2018-12-17T05:03:02.537Z,3.8
2018-12-17T05:04:04.851Z,3.7
2018-12-17T05:05:06.326Z,3.8
2018-12-17T05:06:08.876Z,3.7
2018-12-17T05:07:10.336Z,3.8
2018-12-17T05:08:12.711Z,3.8
2018-12-17T05:09:16.481Z,3.8
2018-12-17T05:10:18.912Z,3.9
2018-12-17T05:11:20.307Z,3.8
2018-12-17T05:12:21.702Z,3.8
2018-12-17T05:13:23.111Z,3.8
2018-12-17T05:14:25.089Z,3.7
2018-12-17T05:15:26.645Z,3.8
2018-12-17T05:16:29.932Z,3.8
2018-12-17T05:17:31.474Z,3.8
2018-12-17T05:18:33.834Z,3.8
2018-12-17T05:19:35.253Z,3.7
2018-12-17T05:20:36.776Z,3.9
2018-12-17T05:21:38.235Z,3.9
2018-12-17T05:22:39.679Z,3.8
2018-12-17T05:23:41.130Z,3.8
2018-12-17T05:24:43.277Z,3.7
2018-12-17T05:25:44.651Z,3.8
2018-12-17T05:26:46.137Z,3.8
2018-12-17T05:27:47.619Z,3.8
2018-12-17T05:28:49.853Z,3.8
2018-12-17T05:29:51.396Z,3.8
2018-12-17T05:30:52.858Z,3.8
2018-12-17T05:31:54.326Z,3.7
2018-12-17T05:32:55.937Z,3.8
2018-12-17T05:33:57.401Z,3.7
2018-12-17T05:34:58.836Z,3.8
2018-12-17T05:36:01.182Z,3.8
2018-12-17T05:37:02.716Z,3.8
2018-12-17T05:38:04.210Z,3.8
2018-12-17T05:39:05.581Z,3.7
2018-12-17T05:40:07.024Z,3.8
2018-12-17T05:41:08.415Z,3.8
2018-12-17T05:42:09.919Z,3.8
2018-12-17T05:43:11.385Z,3.8
2018-12-17T05:44:12.972Z,3.8
2018-12-17T05:45:15.686Z,3.8
2018-12-17T05:46:17.056Z,3.8
2018-12-17T05:47:18.441Z,3.8
2018-12-17T05:48:19.818Z,3.8
2018-12-17T05:49:21.255Z,3.8
2018-12-17T05:50:22.693Z,3.8
2018-12-17T05:51:24.039Z,3.8
2018-12-17T05:52:26.383Z,3.9
2018-12-17T05:53:28.399Z,3.8
2018-12-17T05:54:30.522Z,3.9
2018-12-17T05:55:32.483Z,3.7
2018-12-17T05:56:33.928Z,3.8
2018-12-17T05:57:37.133Z,3.7
2018-12-17T05:58:38.548Z,3.7
2018-12-17T05:59:40.037Z,3.5
2018-12-17T06:00:41.593Z,3.5
2018-12-17T06:01:43.140Z,3.5
2018-12-17T06:02:44.581Z,3.5
2018-12-17T06:03:46.955Z,3.5
2018-12-17T06:04:48.358Z,3.5
2018-12-17T06:05:49.757Z,3.5
2018-12-17T06:06:51.141Z,3.5
2018-12-17T06:07:52.543Z,3.6
2018-12-17T06:08:53.987Z,3.6
2018-12-17T06:09:55.388Z,3.7
2018-12-17T06:10:57.710Z,3.7
2018-12-17T06:11:59.722Z,3.8
2018-12-17T06:13:01.122Z,3.8
2018-12-17T06:14:03.424Z,3.8
2018-12-17T06:15:04.824Z,3.7
2018-12-17T06:16:08.658Z,3.7
2018-12-17T06:17:10.034Z,3.8
2018-12-17T06:18:11.744Z,3.8
2018-12-17T06:19:13.159Z,3.9
2018-12-17T06:20:14.572Z,3.9
2018-12-17T06:21:15.981Z,3.9
2018-12-17T06:22:17.313Z,3.9
2018-12-17T06:23:18.726Z,4.0
2018-12-17T06:24:20.147Z,3.9
2018-12-17T06:25:21.552Z,3.9
2018-12-17T06:26:24.867Z,3.9
2018-12-17T06:27:26.363Z,3.9
2018-12-17T06:28:27.750Z,3.9
2018-12-17T06:29:35.392Z,3.9
2018-12-17T06:30:30.701Z,3.9
2018-12-17T06:31:32.212Z,4.0
2018-12-17T06:32:33.633Z,4.0
2018-12-17T06:33:35.083Z,3.9
2018-12-17T06:34:38.298Z,3.8
2018-12-17T06:35:40.787Z,3.9
2018-12-17T06:36:42.217Z,3.9
2018-12-17T06:37:44.296Z,3.9
2018-12-17T06:38:45.703Z,3.8
2018-12-17T06:39:47.134Z,3.8
2018-12-17T06:40:50.197Z,3.9
2018-12-17T06:41:51.598Z,3.8
2018-12-17T06:42:53.028Z,3.9
2018-12-17T06:43:54.423Z,3.8
2018-12-17T06:44:56.771Z,3.8
2018-12-17T06:45:58.211Z,3.9
2018-12-17T06:46:59.592Z,3.9
2018-12-17T06:48:00.972Z,3.9
2018-12-17T06:49:03.281Z,3.9
2018-12-17T06:50:04.662Z,3.9
2018-12-17T06:51:06.113Z,4.0
2018-12-17T06:52:07.474Z,4.0
2018-12-17T06:53:11.249Z,4.0
2018-12-17T06:54:12.679Z,4.0
2018-12-17T06:55:14.082Z,4.1
2018-12-17T06:56:15.477Z,4.1
2018-12-17T06:57:18.661Z,4.1
2018-12-17T06:58:20.934Z,4.1
2018-12-17T06:59:24.037Z,4.2
2018-12-17T07:00:25.532Z,4.2
2018-12-17T07:01:28.115Z,4.2
2018-12-17T07:02:29.210Z,4.2
2018-12-17T07:03:31.412Z,4.3
2018-12-17T07:04:33.355Z,4.1
2018-12-17T07:05:34.768Z,4.2
2018-12-17T07:06:36.178Z,4.2
2018-12-17T07:07:39.641Z,4.2
2018-12-17T07:08:40.341Z,4.2
2018-12-17T07:09:41.712Z,4.2
2018-12-17T07:10:43.099Z,4.2
2018-12-17T07:11:44.469Z,4.1
2018-12-17T07:12:45.832Z,4.2
2018-12-17T07:13:47.799Z,4.2
2018-12-17T07:14:49.189Z,4.2
2018-12-17T07:15:50.559Z,4.1
2018-12-17T07:16:52.008Z,4.2
2018-12-17T07:17:54.213Z,4.2
2018-12-17T07:18:56.491Z,4.2
2018-12-17T07:19:57.879Z,4.1
2018-12-17T07:20:59.279Z,4.2
2018-12-17T07:22:01.583Z,4.2
2018-12-17T07:23:03.004Z,4.3
2018-12-17T07:24:04.383Z,4.2
2018-12-17T07:25:06.388Z,4.3
2018-12-17T07:26:07.783Z,4.2
2018-12-17T07:27:09.885Z,4.3
2018-12-17T07:28:12.979Z,4.3
2018-12-17T07:29:14.393Z,4.2
2018-12-17T07:30:15.877Z,4.3
2018-12-17T07:31:18.081Z,4.3
2018-12-17T07:32:19.475Z,4.2
2018-12-17T07:33:20.895Z,4.2
2018-12-17T07:34:22.373Z,4.2
2018-12-17T07:35:24.664Z,4.2
2018-12-17T07:36:25.158Z,4.2
2018-12-17T07:37:27.212Z,4.2
2018-12-17T07:38:29.215Z,4.2
2018-12-17T07:39:32.948Z,4.2
2018-12-17T07:40:35.220Z,4.1
2018-12-17T07:41:36.708Z,4.2
2018-12-17T07:42:38.769Z,4.1
2018-12-17T07:43:40.152Z,4.1
2018-12-17T07:44:43.148Z,4.1
2018-12-17T07:45:43.667Z,4.2
2018-12-17T07:46:45.084Z,4.3
2018-12-17T07:47:46.454Z,4.2
2018-12-17T07:48:47.872Z,4.2
2018-12-17T07:49:49.269Z,4.2
2018-12-17T07:50:51.655Z,4.2
2018-12-17T07:51:53.082Z,4.3
2018-12-17T07:52:54.476Z,4.1
2018-12-17T07:53:55.889Z,4.1
2018-12-17T07:54:57.284Z,4.2
2018-12-17T07:55:59.259Z,4.3
2018-12-17T07:57:00.656Z,4.1
2018-12-17T07:58:02.040Z,4.2
2018-12-17T07:59:03.545Z,4.1
2018-12-17T08:00:04.975Z,4.2
2018-12-17T08:01:06.380Z,4.1
2018-12-17T08:02:07.795Z,4.0
2018-12-17T08:03:09.714Z,4.2
2018-12-17T08:04:11.081Z,4.1
2018-12-17T08:05:12.471Z,4.2
2018-12-17T08:06:13.834Z,4.2
2018-12-17T08:07:15.224Z,4.1
2018-12-17T08:08:16.663Z,4.2
2018-12-17T08:09:19.529Z,4.2
2018-12-17T08:10:21.840Z,4.2
2018-12-17T08:11:23.338Z,4.2
2018-12-17T08:12:26.398Z,4.2
2018-12-17T08:13:27.891Z,4.2
2018-12-17T08:14:30.151Z,4.3
2018-12-17T08:15:30.729Z,4.3
2018-12-17T08:16:32.219Z,4.2
2018-12-17T08:17:34.588Z,4.3
2018-12-17T08:18:36.011Z,4.2
2018-12-17T08:19:37.420Z,4.3
2018-12-17T08:20:40.277Z,4.3
2018-12-17T08:21:43.159Z,4.2
2018-12-17T08:22:43.796Z,4.3
2018-12-17T08:23:45.226Z,4.3
2018-12-17T08:24:46.664Z,4.4
2018-12-17T08:25:48.103Z,4.3
2018-12-17T08:26:49.528Z,4.3
2018-12-17T08:27:51.000Z,4.3
2018-12-17T08:28:52.943Z,4.3
2018-12-17T08:29:54.388Z,4.3
2018-12-17T08:30:55.779Z,4.3
2018-12-17T08:32:02.329Z,4.4
2018-12-17T08:33:04.408Z,4.3
2018-12-17T08:34:07.010Z,4.4
2018-12-17T08:35:09.037Z,4.4
2018-12-17T08:36:10.449Z,4.4
2018-12-17T08:37:13.614Z,4.4
2018-12-17T08:38:15.802Z,4.2
2018-12-17T08:39:18.546Z,4.3
2018-12-17T08:40:19.932Z,4.3
2018-12-17T08:41:22.168Z,4.3
2018-12-17T08:42:23.615Z,4.3
2018-12-17T08:43:25.770Z,4.2
2018-12-17T08:44:27.139Z,4.2
2018-12-17T08:45:30.439Z,4.3
2018-12-17T08:46:30.855Z,4.3
2018-12-17T08:47:33.130Z,4.4
2018-12-17T08:48:34.522Z,4.4
2018-12-17T08:49:35.956Z,4.3
2018-12-17T08:50:41.162Z,4.4
2018-12-17T08:51:41.745Z,4.4
2018-12-17T08:52:43.126Z,4.4
2018-12-17T08:53:45.375Z,4.4
2018-12-17T08:54:46.941Z,4.4
2018-12-17T08:55:50.117Z,4.4
2018-12-17T08:56:51.526Z,4.4
2018-12-17T08:57:53.035Z,4.3
2018-12-17T08:58:54.470Z,4.3
2018-12-17T08:59:55.946Z,4.3
2018-12-17T09:00:58.160Z,4.3
2018-12-17T09:01:59.546Z,4.3
2018-12-17T09:03:01.002Z,4.3
2018-12-17T09:04:02.513Z,4.4
2018-12-17T09:05:04.660Z,4.3
2018-12-17T09:06:06.740Z,4.3
2018-12-17T09:07:08.208Z,4.2
2018-12-17T09:08:09.625Z,4.3
2018-12-17T09:09:11.121Z,4.2
2018-12-17T09:10:14.310Z,4.3
2018-12-17T09:11:16.571Z,4.3
2018-12-17T09:12:18.383Z,4.3
2018-12-17T09:13:19.890Z,4.3
2018-12-17T09:14:21.338Z,4.3
2018-12-17T09:15:22.744Z,4.4
2018-12-17T09:16:24.105Z,4.4
2018-12-17T09:17:26.066Z,4.6
2018-12-17T09:18:27.541Z,4.5
2018-12-17T09:19:29.026Z,4.5
2018-12-17T09:20:30.441Z,4.4
2018-12-17T09:21:32.430Z,4.5
2018-12-17T09:22:33.815Z,4.5
2018-12-17T09:23:37.250Z,4.4
2018-12-17T09:24:41.871Z,4.4
2018-12-17T09:25:44.587Z,4.5
2018-12-17T09:26:45.982Z,4.4
2018-12-17T09:27:48.041Z,4.4
2018-12-17T09:28:49.491Z,4.4
2018-12-17T09:29:50.992Z,4.5
2018-12-17T09:30:53.248Z,4.5
2018-12-17T09:31:54.688Z,4.3
2018-12-17T09:32:57.037Z,4.4
2018-12-17T09:33:58.907Z,4.4
2018-12-17T09:35:00.426Z,4.4
2018-12-17T09:36:01.881Z,4.4
2018-12-17T09:37:03.322Z,4.4
2018-12-17T09:38:07.592Z,4.4
2018-12-17T09:39:10.652Z,4.3
2018-12-17T09:40:12.580Z,4.4
2018-12-17T09:41:15.431Z,4.4
2018-12-17T09:42:16.793Z,4.5
2018-12-17T09:43:18.935Z,4.4
2018-12-17T09:44:20.480Z,4.5
2018-12-17T09:45:23.461Z,4.4
2018-12-17T09:46:25.043Z,4.4
2018-12-17T09:47:26.450Z,4.5
2018-12-17T09:48:27.862Z,4.5
2018-12-17T09:49:29.288Z,4.4
2018-12-17T09:50:33.916Z,4.5
2018-12-17T09:51:38.194Z,4.4
2018-12-17T09:52:39.737Z,4.5
2018-12-17T09:53:43.010Z,4.4
2018-12-17T09:54:44.528Z,4.4
2018-12-17T09:55:46.521Z,4.4
2018-12-17T09:56:47.891Z,4.4
2018-12-17T09:57:50.025Z,4.4
2018-12-17T09:58:52.228Z,4.3
2018-12-17T09:59:53.617Z,4.3
2018-12-17T10:00:55.076Z,4.4
2018-12-17T10:01:56.502Z,4.4
2018-12-17T10:02:57.885Z,4.4
2018-12-17T10:03:59.267Z,4.3
2018-12-17T10:05:00.656Z,4.3
2018-12-17T10:06:03.387Z,4.3
2018-12-17T10:07:04.779Z,4.3
2018-12-17T10:08:06.172Z,4.3
2018-12-17T10:09:07.598Z,4.3
2018-12-17T10:10:08.987Z,4.3
2018-12-17T10:11:11.268Z,4.3
2018-12-17T10:12:14.206Z,4.3
2018-12-17T10:13:16.588Z,4.4
2018-12-17T10:14:18.784Z,4.4
2018-12-17T10:15:23.236Z,4.2
2018-12-17T10:16:24.668Z,4.3
2018-12-17T10:17:26.062Z,4.3
2018-12-17T10:18:27.427Z,4.4
2018-12-17T10:19:28.798Z,4.4
2018-12-17T10:20:30.170Z,4.3
2018-12-17T10:21:31.651Z,4.3
2018-12-17T10:22:33.882Z,4.3
2018-12-17T10:23:35.833Z,4.3
2018-12-17T10:24:37.247Z,4.3
2018-12-17T10:25:39.363Z,4.5
2018-12-17T10:26:42.003Z,4.3
2018-12-17T10:27:43.382Z,4.3
2018-12-17T10:28:44.769Z,4.4
2018-12-17T10:29:46.161Z,4.4
2018-12-17T10:30:49.679Z,4.4
2018-12-17T10:31:50.076Z,4.5
2018-12-17T10:32:52.285Z,4.4
2018-12-17T10:33:55.057Z,4.3
2018-12-17T10:34:56.406Z,4.3
2018-12-17T10:35:58.329Z,4.4
2018-12-17T10:36:59.688Z,4.3
2018-12-17T10:38:01.986Z,4.3
2018-12-17T10:39:04.182Z,4.3
2018-12-17T10:40:04.658Z,4.3
2018-12-17T10:41:06.853Z,4.3
2018-12-17T10:42:08.219Z,4.3
2018-12-17T10:43:09.568Z,4.3
2018-12-17T10:44:10.939Z,4.4
2018-12-17T10:45:12.302Z,4.4
2018-12-17T10:46:13.646Z,4.4
2018-12-17T10:47:15.004Z,4.4
2018-12-17T10:48:16.360Z,4.5
2018-12-17T10:49:17.729Z,4.4
2018-12-17T10:50:19.081Z,4.4
2018-12-17T10:51:21.757Z,4.4
2018-12-17T10:52:24.066Z,4.4
2018-12-17T10:53:25.414Z,4.4
2018-12-17T10:54:26.764Z,4.4
2018-12-17T10:55:30.371Z,4.3
2018-12-17T10:56:31.747Z,4.3
2018-12-17T10:57:33.113Z,4.3
2018-12-17T10:58:35.242Z,4.5
2018-12-17T10:59:36.603Z,4.5
2018-12-17T11:00:39.504Z,4.4
2018-12-17T11:01:39.877Z,4.5
2018-12-17T11:02:41.797Z,4.5
2018-12-17T11:03:43.148Z,4.4
2018-12-17T11:04:45.053Z,4.5
2018-12-17T11:05:47.242Z,4.5
2018-12-17T11:06:48.623Z,4.4
2018-12-17T11:07:50.571Z,4.4
2018-12-17T11:08:53.518Z,4.5
2018-12-17T11:09:54.878Z,4.5
2018-12-17T11:10:57.786Z,4.5
2018-12-17T11:12:02.043Z,4.5
2018-12-17T11:13:04.577Z,4.5
2018-12-17T11:14:07.488Z,4.4
2018-12-17T11:15:09.710Z,4.5
2018-12-17T11:16:12.405Z,4.5
2018-12-17T11:17:13.754Z,4.6
2018-12-17T11:18:15.107Z,4.5
2018-12-17T11:19:16.463Z,4.5
2018-12-17T11:20:19.372Z,4.6
2018-12-17T11:21:20.807Z,4.5
2018-12-17T11:22:22.811Z,4.5
2018-12-17T11:23:26.375Z,4.5
2018-12-17T11:24:28.786Z,4.6
2018-12-17T11:25:38.860Z,4.5
2018-12-17T11:26:41.029Z,4.6
2018-12-17T11:27:42.394Z,4.5
2018-12-17T11:28:45.249Z,4.6
2018-12-17T11:29:46.593Z,4.6
2018-12-17T11:30:48.574Z,4.5
2018-12-17T11:31:49.925Z,4.6
2018-12-17T11:32:51.967Z,4.6
2018-12-17T11:33:53.319Z,4.6
2018-12-17T11:34:54.683Z,4.6
2018-12-17T11:35:56.717Z,4.6
2018-12-17T11:36:58.061Z,4.6
2018-12-17T11:38:00.117Z,4.6
2018-12-17T11:39:01.473Z,4.6
2018-12-17T11:40:02.828Z,4.6
2018-12-17T11:41:04.696Z,4.6
2018-12-17T11:42:05.528Z,4.5
2018-12-17T11:43:06.884Z,4.5
2018-12-17T11:44:08.264Z,4.5
2018-12-17T11:45:10.197Z,4.5
2018-12-17T11:46:11.758Z,4.6
2018-12-17T11:47:14.052Z,4.5
2018-12-17T11:48:15.410Z,4.6
2018-12-17T11:49:16.770Z,4.5
2018-12-17T11:50:18.137Z,4.5
2018-12-17T11:51:20.892Z,4.6
2018-12-17T11:52:23.032Z,4.6
2018-12-17T11:53:24.382Z,4.6
2018-12-17T11:54:26.669Z,4.6
2018-12-17T11:55:28.033Z,4.6
2018-12-17T11:56:30.020Z,4.6
2018-12-17T11:57:31.379Z,4.6
2018-12-17T11:58:32.732Z,4.5
2018-12-17T11:59:34.084Z,4.6
2018-12-17T12:00:35.446Z,4.6
2018-12-17T12:01:36.935Z,4.7
2018-12-17T12:02:38.219Z,4.5
2018-12-17T12:03:39.573Z,4.6
2018-12-17T12:04:41.482Z,4.6
2018-12-17T12:05:42.849Z,4.6
2018-12-17T12:06:47.157Z,4.6
2018-12-17T12:07:48.531Z,4.6
2018-12-17T12:08:52.844Z,4.6
2018-12-17T12:09:55.097Z,4.6
2018-12-17T12:10:56.464Z,4.6
2018-12-17T12:11:58.656Z,4.7
2018-12-17T12:13:00.072Z,4.6
2018-12-17T12:14:01.442Z,4.6
2018-12-17T12:15:02.895Z,4.6
2018-12-17T12:16:04.253Z,4.7
2018-12-17T12:17:06.268Z,4.6
2018-12-17T12:18:08.468Z,4.6
2018-12-17T12:19:10.783Z,4.6
2018-12-17T12:20:12.140Z,4.7
2018-12-17T12:21:14.771Z,4.7
2018-12-17T12:22:17.003Z,4.7
2018-12-17T12:23:18.379Z,4.7
2018-12-17T12:24:19.748Z,4.7
2018-12-17T12:25:22.229Z,4.7
2018-12-17T12:26:23.593Z,4.7
2018-12-17T12:27:27.708Z,4.6
2018-12-17T12:28:29.897Z,4.7
2018-12-17T12:29:31.257Z,4.8
2018-12-17T12:30:33.290Z,4.8
2018-12-17T12:31:34.683Z,4.7
2018-12-17T12:32:36.058Z,4.8
2018-12-17T12:33:38.354Z,4.7
2018-12-17T12:34:39.739Z,4.8
2018-12-17T12:35:41.080Z,4.7
2018-12-17T12:36:42.430Z,4.8
2018-12-17T12:37:43.784Z,4.8
2018-12-17T12:38:45.142Z,4.7
2018-12-17T12:39:59.288Z,4.8
2018-12-17T12:41:02.948Z,4.7
2018-12-17T12:42:05.199Z,4.8
2018-12-17T12:43:08.178Z,4.8
2018-12-17T12:44:10.279Z,4.7
2018-12-17T12:45:11.697Z,4.8
2018-12-17T12:46:13.239Z,4.8
2018-12-17T12:47:14.566Z,4.7
2018-12-17T12:48:15.925Z,4.8
2018-12-17T12:49:17.279Z,4.9
2018-12-17T12:50:18.665Z,4.8
2018-12-17T12:51:20.029Z,4.8
2018-12-17T12:52:22.240Z,4.8
2018-12-17T12:53:23.605Z,4.8
2018-12-17T12:54:25.023Z,4.8
2018-12-17T12:55:26.368Z,4.9
2018-12-17T12:56:29.584Z,4.8
2018-12-17T12:57:30.935Z,4.8
2018-12-17T12:58:33.204Z,4.9
2018-12-17T12:59:35.260Z,4.8
2018-12-17T13:00:37.606Z,4.9
2018-12-17T13:01:39.009Z,4.9
2018-12-17T13:02:42.455Z,4.8
2018-12-17T13:03:43.809Z,4.9
2018-12-17T13:04:47.307Z,4.9
2018-12-17T13:05:51.370Z,5.0
2018-12-17T13:06:52.747Z,4.9
2018-12-17T13:07:56.061Z,5.0
2018-12-17T13:08:57.440Z,5.0
2018-12-17T13:09:58.804Z,4.9
2018-12-17T13:11:01.893Z,4.9
2018-12-17T13:12:03.244Z,4.9
2018-12-17T13:13:06.560Z,5.0
2018-12-17T13:14:07.932Z,4.9
2018-12-17T13:15:09.294Z,5.0
2018-12-17T13:16:11.890Z,5.0
2018-12-17T13:17:13.239Z,4.9
2018-12-17T13:18:14.599Z,5.0
2018-12-17T13:19:16.559Z,5.0
2018-12-17T13:20:17.910Z,5.0
2018-12-17T13:21:20.176Z,5.0
2018-12-17T13:22:21.529Z,5.0
2018-12-17T13:23:22.892Z,5.0
2018-12-17T13:24:24.247Z,5.1
2018-12-17T13:25:26.418Z,5.0
2018-12-17T13:26:27.781Z,5.0
2018-12-17T13:27:29.767Z,5.0
2018-12-17T13:28:31.142Z,5.0
2018-12-17T13:29:32.509Z,5.0
2018-12-17T13:30:33.861Z,5.0
2018-12-17T13:31:35.230Z,5.0
2018-12-17T13:32:37.591Z,5.0
2018-12-17T13:33:39.866Z,5.0
2018-12-17T13:34:41.907Z,5.0
2018-12-17T13:35:44.165Z,5.0
2018-12-17T13:36:46.421Z,5.0
2018-12-17T13:37:47.786Z,5.0
2018-12-17T13:38:49.151Z,5.0
2018-12-17T13:39:50.511Z,5.1
2018-12-17T13:40:51.870Z,5.0
2018-12-17T13:41:53.219Z,5.0
2018-12-17T13:42:55.466Z,5.0
2018-12-17T13:43:57.325Z,5.0
2018-12-17T13:44:59.207Z,5.1
2018-12-17T13:46:00.564Z,5.0
2018-12-17T13:47:01.924Z,5.0
2018-12-17T13:48:03.280Z,5.1
2018-12-17T13:49:04.668Z,5.1
2018-12-17T13:50:06.025Z,5.0
2018-12-17T13:51:07.415Z,5.1
2018-12-17T13:52:08.776Z,5.1
2018-12-17T13:53:10.139Z,5.1
2018-12-17T13:54:11.498Z,5.0
2018-12-17T13:55:12.856Z,5.1
2018-12-17T13:56:15.111Z,5.1
2018-12-17T13:57:17.089Z,5.1
2018-12-17T13:58:19.082Z,5.2
2018-12-17T13:59:21.683Z,5.1
2018-12-17T14:00:23.037Z,5.1
2018-12-17T14:01:24.392Z,5.1
2018-12-17T14:02:25.747Z,5.2
2018-12-17T14:03:27.931Z,5.1
2018-12-17T14:04:29.286Z,5.2
2018-12-17T14:05:31.510Z,5.1
2018-12-17T14:06:33.738Z,5.2
2018-12-17T14:07:35.965Z,5.2
2018-12-17T14:08:37.318Z,5.1
2018-12-17T14:09:40.326Z,5.2
2018-12-17T14:10:43.616Z,5.2
2018-12-17T14:11:44.966Z,5.1
2018-12-17T14:12:47.746Z,5.1